sensor_id;sensor_type;location;lat;lon;timestamp;P1;durP1;ratioP1;P2;durP2;ratioP2
63312;SDS011;49442;45.640;13.812;2023-10-31T00:01:27;46.72;;;10.02;;
63312;SDS011;49442;45.640;13.812;2023-10-31T00:03:53;43.78;;;9.85;;
63312;SDS011;49442;45.640;13.812;2023-10-31T00:06:19;20.80;;;5.88;;
63312;SDS011;49442;45.640;13.812;2023-10-31T00:08:44;48.22;;;10.63;;
63312;SDS011;49442;45.640;13.812;2023-10-31T00:11:10;41.05;;;8.40;;
63312;SDS011;49442;45.640;13.812;2023-10-31T00:13:35;36.38;;;8.48;;
63312;SDS011;49442;45.640;13.812;2023-10-31T00:16:01;28.20;;;6.78;;
63312;SDS011;49442;45.640;13.812;2023-10-31T00:18:27;28.23;;;6.00;;
63312;SDS011;49442;45.640;13.812;2023-10-31T00:20:53;28.17;;;5.85;;
63312;SDS011;49442;45.640;13.812;2023-10-31T00:23:18;39.05;;;7.72;;
63312;SDS011;49442;45.640;13.812;2023-10-31T00:25:44;43.72;;;8.20;;
63312;SDS011;49442;45.640;13.812;2023-10-31T00:28:09;32.53;;;7.07;;
63312;SDS011;49442;45.640;13.812;2023-10-31T00:30:35;32.53;;;7.13;;
63312;SDS011;49442;45.640;13.812;2023-10-31T00:33:01;18.20;;;6.03;;
63312;SDS011;49442;45.640;13.812;2023-10-31T00:35:26;32.85;;;7.18;;
63312;SDS011;49442;45.640;13.812;2023-10-31T00:37:52;34.70;;;8.25;;
63312;SDS011;49442;45.640;13.812;2023-10-31T00:40:18;60.13;;;10.82;;
63312;SDS011;49442;45.640;13.812;2023-10-31T00:42:43;45.25;;;8.27;;
63312;SDS011;49442;45.640;13.812;2023-10-31T00:45:10;13.77;;;3.30;;
63312;SDS011;49442;45.640;13.812;2023-10-31T00:47:36;2.25;;;0.82;;
63312;SDS011;49442;45.640;13.812;2023-10-31T00:50:01;9.45;;;1.60;;
63312;SDS011;49442;45.640;13.812;2023-10-31T00:52:27;4.95;;;1.35;;
63312;SDS011;49442;45.640;13.812;2023-10-31T00:54:53;10.65;;;1.50;;
63312;SDS011;49442;45.640;13.812;2023-10-31T00:57:18;6.80;;;1.40;;
63312;SDS011;49442;45.640;13.812;2023-10-31T00:59:44;6.03;;;1.05;;
63312;SDS011;49442;45.640;13.812;2023-10-31T01:02:10;5.03;;;1.05;;
63312;SDS011;49442;45.640;13.812;2023-10-31T01:04:36;7.45;;;2.00;;
63312;SDS011;49442;45.640;13.812;2023-10-31T01:07:05;8.98;;;2.25;;
63312;SDS011;49442;45.640;13.812;2023-10-31T01:09:30;5.47;;;2.50;;
63312;SDS011;49442;45.640;13.812;2023-10-31T01:11:56;8.98;;;3.15;;
63312;SDS011;49442;45.640;13.812;2023-10-31T01:14:21;7.32;;;3.03;;
63312;SDS011;49442;45.640;13.812;2023-10-31T01:16:47;10.63;;;2.63;;
63312;SDS011;49442;45.640;13.812;2023-10-31T01:19:13;8.40;;;2.60;;
63312;SDS011;49442;45.640;13.812;2023-10-31T01:21:38;11.23;;;3.35;;
63312;SDS011;49442;45.640;13.812;2023-10-31T01:24:04;11.27;;;3.75;;
63312;SDS011;49442;45.640;13.812;2023-10-31T01:26:30;15.68;;;4.10;;
63312;SDS011;49442;45.640;13.812;2023-10-31T01:28:56;12.77;;;4.90;;
63312;SDS011;49442;45.640;13.812;2023-10-31T01:31:21;11.55;;;4.22;;
63312;SDS011;49442;45.640;13.812;2023-10-31T01:33:47;18.25;;;6.15;;
63312;SDS011;49442;45.640;13.812;2023-10-31T01:36:13;14.73;;;5.25;;
63312;SDS011;49442;45.640;13.812;2023-10-31T01:38:39;23.30;;;6.30;;
63312;SDS011;49442;45.640;13.812;2023-10-31T01:41:05;20.58;;;5.20;;
63312;SDS011;49442;45.640;13.812;2023-10-31T01:43:37;20.83;;;5.78;;
63312;SDS011;49442;45.640;13.812;2023-10-31T01:46:03;19.58;;;5.85;;
63312;SDS011;49442;45.640;13.812;2023-10-31T01:48:30;20.27;;;5.97;;
63312;SDS011;49442;45.640;13.812;2023-10-31T01:50:58;20.52;;;5.68;;
63312;SDS011;49442;45.640;13.812;2023-10-31T01:53:24;28.10;;;6.22;;
63312;SDS011;49442;45.640;13.812;2023-10-31T01:55:53;36.75;;;8.38;;
63312;SDS011;49442;45.640;13.812;2023-10-31T01:58:21;37.80;;;9.02;;
63312;SDS011;49442;45.640;13.812;2023-10-31T02:00:53;40.53;;;9.80;;
63312;SDS011;49442;45.640;13.812;2023-10-31T02:03:20;46.60;;;11.07;;
63312;SDS011;49442;45.640;13.812;2023-10-31T02:05:46;51.67;;;10.50;;
63312;SDS011;49442;45.640;13.812;2023-10-31T02:08:12;62.58;;;12.15;;
63312;SDS011;49442;45.640;13.812;2023-10-31T02:10:37;64.18;;;12.80;;
63312;SDS011;49442;45.640;13.812;2023-10-31T02:13:10;58.10;;;13.05;;
63312;SDS011;49442;45.640;13.812;2023-10-31T02:15:45;49.88;;;11.65;;
63312;SDS011;49442;45.640;13.812;2023-10-31T02:18:10;47.85;;;11.75;;
63312;SDS011;49442;45.640;13.812;2023-10-31T02:20:36;54.38;;;12.07;;
63312;SDS011;49442;45.640;13.812;2023-10-31T02:23:02;63.50;;;13.45;;
63312;SDS011;49442;45.640;13.812;2023-10-31T02:25:28;55.10;;;12.02;;
63312;SDS011;49442;45.640;13.812;2023-10-31T02:27:54;74.75;;;13.90;;
63312;SDS011;49442;45.640;13.812;2023-10-31T02:30:20;77.32;;;13.15;;
63312;SDS011;49442;45.640;13.812;2023-10-31T02:32:46;50.40;;;11.52;;
63312;SDS011;49442;45.640;13.812;2023-10-31T02:35:11;62.28;;;10.93;;
63312;SDS011;49442;45.640;13.812;2023-10-31T02:37:37;65.90;;;15.38;;
63312;SDS011;49442;45.640;13.812;2023-10-31T02:40:03;69.60;;;13.40;;
63312;SDS011;49442;45.640;13.812;2023-10-31T02:42:29;61.83;;;12.93;;
63312;SDS011;49442;45.640;13.812;2023-10-31T02:44:55;52.72;;;11.35;;
63312;SDS011;49442;45.640;13.812;2023-10-31T02:47:21;59.35;;;12.15;;
63312;SDS011;49442;45.640;13.812;2023-10-31T02:49:47;64.82;;;11.18;;
63312;SDS011;49442;45.640;13.812;2023-10-31T02:52:12;52.78;;;10.45;;
63312;SDS011;49442;45.640;13.812;2023-10-31T02:54:38;55.08;;;11.15;;
63312;SDS011;49442;45.640;13.812;2023-10-31T02:57:04;51.22;;;11.38;;
63312;SDS011;49442;45.640;13.812;2023-10-31T02:59:29;70.22;;;11.68;;
63312;SDS011;49442;45.640;13.812;2023-10-31T03:01:56;53.40;;;11.05;;
63312;SDS011;49442;45.640;13.812;2023-10-31T03:04:22;58.22;;;11.07;;
63312;SDS011;49442;45.640;13.812;2023-10-31T03:06:48;56.83;;;10.43;;
63312;SDS011;49442;45.640;13.812;2023-10-31T03:09:14;54.58;;;10.48;;
63312;SDS011;49442;45.640;13.812;2023-10-31T03:11:40;47.08;;;11.65;;
63312;SDS011;49442;45.640;13.812;2023-10-31T03:14:05;59.30;;;13.68;;
63312;SDS011;49442;45.640;13.812;2023-10-31T03:16:31;57.22;;;12.68;;
63312;SDS011;49442;45.640;13.812;2023-10-31T03:18:57;53.05;;;12.15;;
63312;SDS011;49442;45.640;13.812;2023-10-31T03:21:24;61.65;;;11.45;;
63312;SDS011;49442;45.640;13.812;2023-10-31T03:23:50;65.20;;;12.63;;
63312;SDS011;49442;45.640;13.812;2023-10-31T03:26:18;55.50;;;12.13;;
63312;SDS011;49442;45.640;13.812;2023-10-31T03:28:44;49.55;;;11.05;;
63312;SDS011;49442;45.640;13.812;2023-10-31T03:31:10;50.85;;;11.13;;
63312;SDS011;49442;45.640;13.812;2023-10-31T03:33:39;43.67;;;10.48;;
63312;SDS011;49442;45.640;13.812;2023-10-31T03:36:05;57.65;;;11.93;;
63312;SDS011;49442;45.640;13.812;2023-10-31T03:38:31;43.20;;;11.35;;
63312;SDS011;49442;45.640;13.812;2023-10-31T03:40:57;60.88;;;11.90;;
63312;SDS011;49442;45.640;13.812;2023-10-31T03:43:22;50.80;;;10.68;;
63312;SDS011;49442;45.640;13.812;2023-10-31T03:45:48;55.17;;;11.43;;
63312;SDS011;49442;45.640;13.812;2023-10-31T03:48:15;59.38;;;11.80;;
63312;SDS011;49442;45.640;13.812;2023-10-31T03:50:41;53.35;;;12.80;;
63312;SDS011;49442;45.640;13.812;2023-10-31T03:53:07;53.72;;;10.77;;
63312;SDS011;49442;45.640;13.812;2023-10-31T03:55:33;46.95;;;11.55;;
63312;SDS011;49442;45.640;13.812;2023-10-31T03:57:59;56.20;;;11.07;;
63312;SDS011;49442;45.640;13.812;2023-10-31T04:00:25;51.22;;;10.40;;
63312;SDS011;49442;45.640;13.812;2023-10-31T04:02:51;50.35;;;10.18;;
63312;SDS011;49442;45.640;13.812;2023-10-31T04:05:17;55.80;;;11.98;;
63312;SDS011;49442;45.640;13.812;2023-10-31T04:07:43;55.55;;;12.32;;
63312;SDS011;49442;45.640;13.812;2023-10-31T04:10:10;50.33;;;10.43;;
63312;SDS011;49442;45.640;13.812;2023-10-31T04:12:36;39.13;;;10.00;;
63312;SDS011;49442;45.640;13.812;2023-10-31T04:15:02;42.75;;;10.32;;
63312;SDS011;49442;45.640;13.812;2023-10-31T04:17:28;58.10;;;11.30;;
63312;SDS011;49442;45.640;13.812;2023-10-31T04:19:54;56.47;;;11.05;;
63312;SDS011;49442;45.640;13.812;2023-10-31T04:22:20;49.63;;;9.57;;
63312;SDS011;49442;45.640;13.812;2023-10-31T04:24:45;61.85;;;10.32;;
63312;SDS011;49442;45.640;13.812;2023-10-31T04:27:11;44.05;;;11.00;;
63312;SDS011;49442;45.640;13.812;2023-10-31T04:29:37;48.10;;;10.63;;
63312;SDS011;49442;45.640;13.812;2023-10-31T04:32:03;44.28;;;8.93;;
63312;SDS011;49442;45.640;13.812;2023-10-31T04:34:28;46.22;;;8.50;;
63312;SDS011;49442;45.640;13.812;2023-10-31T04:36:54;38.67;;;8.48;;
63312;SDS011;49442;45.640;13.812;2023-10-31T04:39:20;51.58;;;9.73;;
63312;SDS011;49442;45.640;13.812;2023-10-31T04:41:45;47.63;;;9.80;;
63312;SDS011;49442;45.640;13.812;2023-10-31T04:44:11;43.67;;;9.30;;
63312;SDS011;49442;45.640;13.812;2023-10-31T04:46:37;40.35;;;7.90;;
63312;SDS011;49442;45.640;13.812;2023-10-31T04:49:02;33.95;;;7.00;;
63312;SDS011;49442;45.640;13.812;2023-10-31T04:51:32;35.13;;;7.75;;
63312;SDS011;49442;45.640;13.812;2023-10-31T04:54:02;41.53;;;7.03;;
63312;SDS011;49442;45.640;13.812;2023-10-31T04:56:28;35.45;;;6.72;;
63312;SDS011;49442;45.640;13.812;2023-10-31T04:58:54;35.05;;;6.85;;
63312;SDS011;49442;45.640;13.812;2023-10-31T05:01:19;24.05;;;6.22;;
63312;SDS011;49442;45.640;13.812;2023-10-31T05:03:45;28.17;;;6.30;;
63312;SDS011;49442;45.640;13.812;2023-10-31T05:06:11;35.25;;;6.80;;
63312;SDS011;49442;45.640;13.812;2023-10-31T05:08:36;26.85;;;6.88;;
63312;SDS011;49442;45.640;13.812;2023-10-31T05:11:02;28.75;;;6.57;;
63312;SDS011;49442;45.640;13.812;2023-10-31T05:13:28;36.67;;;6.97;;
63312;SDS011;49442;45.640;13.812;2023-10-31T05:15:54;30.50;;;5.47;;
63312;SDS011;49442;45.640;13.812;2023-10-31T05:18:20;33.75;;;7.75;;
63312;SDS011;49442;45.640;13.812;2023-10-31T05:20:45;37.20;;;6.50;;
63312;SDS011;49442;45.640;13.812;2023-10-31T05:23:11;31.45;;;6.18;;
63312;SDS011;49442;45.640;13.812;2023-10-31T05:25:37;22.98;;;5.13;;
63312;SDS011;49442;45.640;13.812;2023-10-31T05:28:03;32.30;;;6.18;;
63312;SDS011;49442;45.640;13.812;2023-10-31T05:30:29;30.80;;;5.18;;
63312;SDS011;49442;45.640;13.812;2023-10-31T05:32:55;26.40;;;5.97;;
63312;SDS011;49442;45.640;13.812;2023-10-31T05:35:20;35.72;;;6.07;;
63312;SDS011;49442;45.640;13.812;2023-10-31T05:37:46;40.75;;;7.38;;
63312;SDS011;49442;45.640;13.812;2023-10-31T05:40:12;35.10;;;6.82;;
63312;SDS011;49442;45.640;13.812;2023-10-31T05:42:38;33.63;;;6.80;;
63312;SDS011;49442;45.640;13.812;2023-10-31T05:45:04;28.23;;;6.05;;
63312;SDS011;49442;45.640;13.812;2023-10-31T05:47:30;29.00;;;5.90;;
63312;SDS011;49442;45.640;13.812;2023-10-31T05:49:56;33.95;;;6.45;;
63312;SDS011;49442;45.640;13.812;2023-10-31T05:52:22;25.40;;;5.85;;
63312;SDS011;49442;45.640;13.812;2023-10-31T05:54:48;32.47;;;5.30;;
63312;SDS011;49442;45.640;13.812;2023-10-31T05:57:13;29.95;;;5.30;;
63312;SDS011;49442;45.640;13.812;2023-10-31T05:59:39;24.05;;;5.70;;
63312;SDS011;49442;45.640;13.812;2023-10-31T06:02:05;28.45;;;6.05;;
63312;SDS011;49442;45.640;13.812;2023-10-31T06:04:30;27.13;;;6.00;;
63312;SDS011;49442;45.640;13.812;2023-10-31T06:06:56;29.40;;;6.47;;
63312;SDS011;49442;45.640;13.812;2023-10-31T06:09:22;26.00;;;6.00;;
63312;SDS011;49442;45.640;13.812;2023-10-31T06:11:47;36.08;;;6.57;;
63312;SDS011;49442;45.640;13.812;2023-10-31T06:14:13;25.35;;;6.07;;
63312;SDS011;49442;45.640;13.812;2023-10-31T06:16:45;27.00;;;7.28;;
63312;SDS011;49442;45.640;13.812;2023-10-31T06:19:11;33.17;;;6.47;;
63312;SDS011;49442;45.640;13.812;2023-10-31T06:21:36;35.95;;;6.32;;
63312;SDS011;49442;45.640;13.812;2023-10-31T06:24:05;19.55;;;5.78;;
63312;SDS011;49442;45.640;13.812;2023-10-31T06:26:32;27.20;;;6.55;;
63312;SDS011;49442;45.640;13.812;2023-10-31T06:28:58;23.90;;;6.72;;
63312;SDS011;49442;45.640;13.812;2023-10-31T06:31:24;34.20;;;7.22;;
63312;SDS011;49442;45.640;13.812;2023-10-31T06:33:49;28.75;;;5.97;;
63312;SDS011;49442;45.640;13.812;2023-10-31T06:36:15;15.02;;;4.95;;
63312;SDS011;49442;45.640;13.812;2023-10-31T06:38:41;22.02;;;5.90;;
63312;SDS011;49442;45.640;13.812;2023-10-31T06:41:06;18.92;;;4.63;;
63312;SDS011;49442;45.640;13.812;2023-10-31T06:43:32;27.45;;;5.22;;
63312;SDS011;49442;45.640;13.812;2023-10-31T06:45:58;31.63;;;4.60;;
63312;SDS011;49442;45.640;13.812;2023-10-31T06:48:25;28.95;;;4.75;;
63312;SDS011;49442;45.640;13.812;2023-10-31T06:50:51;28.35;;;5.15;;
63312;SDS011;49442;45.640;13.812;2023-10-31T06:53:17;29.10;;;3.75;;
63312;SDS011;49442;45.640;13.812;2023-10-31T06:55:42;26.17;;;4.25;;
63312;SDS011;49442;45.640;13.812;2023-10-31T06:58:08;36.90;;;4.78;;
63312;SDS011;49442;45.640;13.812;2023-10-31T07:00:33;34.28;;;4.72;;
63312;SDS011;49442;45.640;13.812;2023-10-31T07:02:59;30.55;;;4.97;;
63312;SDS011;49442;45.640;13.812;2023-10-31T07:05:30;32.67;;;4.47;;
63312;SDS011;49442;45.640;13.812;2023-10-31T07:07:55;19.88;;;3.92;;
63312;SDS011;49442;45.640;13.812;2023-10-31T07:10:21;21.45;;;3.72;;
63312;SDS011;49442;45.640;13.812;2023-10-31T07:12:47;31.58;;;5.47;;
63312;SDS011;49442;45.640;13.812;2023-10-31T07:15:13;26.80;;;4.80;;
63312;SDS011;49442;45.640;13.812;2023-10-31T07:17:38;31.25;;;5.28;;
63312;SDS011;49442;45.640;13.812;2023-10-31T07:20:05;26.98;;;4.13;;
63312;SDS011;49442;45.640;13.812;2023-10-31T07:22:31;26.60;;;3.55;;
63312;SDS011;49442;45.640;13.812;2023-10-31T07:24:57;32.25;;;4.40;;
63312;SDS011;49442;45.640;13.812;2023-10-31T07:27:24;24.00;;;3.53;;
63312;SDS011;49442;45.640;13.812;2023-10-31T07:29:50;20.10;;;3.72;;
63312;SDS011;49442;45.640;13.812;2023-10-31T07:32:15;27.38;;;3.35;;
63312;SDS011;49442;45.640;13.812;2023-10-31T07:34:41;22.00;;;3.67;;
63312;SDS011;49442;45.640;13.812;2023-10-31T07:37:07;22.85;;;3.72;;
63312;SDS011;49442;45.640;13.812;2023-10-31T07:39:33;30.35;;;4.75;;
63312;SDS011;49442;45.640;13.812;2023-10-31T07:41:58;30.02;;;3.60;;
63312;SDS011;49442;45.640;13.812;2023-10-31T07:44:24;20.50;;;3.95;;
63312;SDS011;49442;45.640;13.812;2023-10-31T07:46:50;16.92;;;3.70;;
63312;SDS011;49442;45.640;13.812;2023-10-31T07:49:15;24.15;;;3.78;;
63312;SDS011;49442;45.640;13.812;2023-10-31T07:51:41;23.67;;;4.45;;
63312;SDS011;49442;45.640;13.812;2023-10-31T07:54:07;21.38;;;3.70;;
63312;SDS011;49442;45.640;13.812;2023-10-31T07:56:34;15.10;;;2.40;;
63312;SDS011;49442;45.640;13.812;2023-10-31T07:59:01;28.85;;;3.63;;
63312;SDS011;49442;45.640;13.812;2023-10-31T08:01:27;13.68;;;2.75;;
63312;SDS011;49442;45.640;13.812;2023-10-31T08:03:53;11.85;;;2.65;;
63312;SDS011;49442;45.640;13.812;2023-10-31T08:06:19;15.93;;;2.45;;
63312;SDS011;49442;45.640;13.812;2023-10-31T08:08:45;14.43;;;2.35;;
63312;SDS011;49442;45.640;13.812;2023-10-31T08:11:11;18.73;;;2.28;;
63312;SDS011;49442;45.640;13.812;2023-10-31T08:13:37;11.20;;;2.45;;
63312;SDS011;49442;45.640;13.812;2023-10-31T08:16:04;14.30;;;2.38;;
63312;SDS011;49442;45.640;13.812;2023-10-31T08:18:30;11.30;;;2.20;;
63312;SDS011;49442;45.640;13.812;2023-10-31T08:20:56;11.52;;;1.75;;
63312;SDS011;49442;45.640;13.812;2023-10-31T08:23:22;8.43;;;1.85;;
63312;SDS011;49442;45.640;13.812;2023-10-31T08:25:48;14.20;;;1.95;;
63312;SDS011;49442;45.640;13.812;2023-10-31T08:28:14;5.18;;;1.42;;
63312;SDS011;49442;45.640;13.812;2023-10-31T08:30:39;8.10;;;2.28;;
63312;SDS011;49442;45.640;13.812;2023-10-31T08:33:05;11.13;;;1.63;;
63312;SDS011;49442;45.640;13.812;2023-10-31T08:35:31;7.88;;;1.65;;
63312;SDS011;49442;45.640;13.812;2023-10-31T08:37:57;5.38;;;1.33;;
63312;SDS011;49442;45.640;13.812;2023-10-31T08:40:23;4.55;;;1.20;;
63312;SDS011;49442;45.640;13.812;2023-10-31T08:42:49;5.70;;;1.10;;
63312;SDS011;49442;45.640;13.812;2023-10-31T08:45:15;11.85;;;2.35;;
63312;SDS011;49442;45.640;13.812;2023-10-31T08:47:40;4.57;;;1.80;;
63312;SDS011;49442;45.640;13.812;2023-10-31T08:50:06;5.25;;;1.30;;
63312;SDS011;49442;45.640;13.812;2023-10-31T08:52:34;6.50;;;1.42;;
63312;SDS011;49442;45.640;13.812;2023-10-31T08:55:00;5.80;;;1.20;;
63312;SDS011;49442;45.640;13.812;2023-10-31T08:57:25;6.43;;;1.00;;
63312;SDS011;49442;45.640;13.812;2023-10-31T08:59:51;5.68;;;1.30;;
63312;SDS011;49442;45.640;13.812;2023-10-31T09:02:17;12.98;;;1.45;;
63312;SDS011;49442;45.640;13.812;2023-10-31T09:04:42;6.97;;;1.05;;
63312;SDS011;49442;45.640;13.812;2023-10-31T09:07:08;2.88;;;1.17;;
63312;SDS011;49442;45.640;13.812;2023-10-31T09:09:33;6.32;;;1.30;;
63312;SDS011;49442;45.640;13.812;2023-10-31T09:11:59;2.10;;;0.90;;
63312;SDS011;49442;45.640;13.812;2023-10-31T09:14:25;4.10;;;1.10;;
63312;SDS011;49442;45.640;13.812;2023-10-31T09:16:50;8.40;;;2.05;;
63312;SDS011;49442;45.640;13.812;2023-10-31T09:19:16;6.70;;;1.30;;
63312;SDS011;49442;45.640;13.812;2023-10-31T09:21:42;3.03;;;0.90;;
63312;SDS011;49442;45.640;13.812;2023-10-31T09:24:08;6.57;;;1.90;;
63312;SDS011;49442;45.640;13.812;2023-10-31T09:26:34;3.80;;;1.10;;
63312;SDS011;49442;45.640;13.812;2023-10-31T09:29:00;5.22;;;1.10;;
63312;SDS011;49442;45.640;13.812;2023-10-31T09:31:25;6.57;;;1.13;;
63312;SDS011;49442;45.640;13.812;2023-10-31T09:33:51;9.05;;;1.67;;
63312;SDS011;49442;45.640;13.812;2023-10-31T09:36:19;6.38;;;1.55;;
63312;SDS011;49442;45.640;13.812;2023-10-31T09:38:45;4.40;;;1.20;;
63312;SDS011;49442;45.640;13.812;2023-10-31T09:41:12;4.38;;;1.17;;
63312;SDS011;49442;45.640;13.812;2023-10-31T09:43:39;5.03;;;1.27;;
63312;SDS011;49442;45.640;13.812;2023-10-31T09:46:05;3.75;;;1.25;;
63312;SDS011;49442;45.640;13.812;2023-10-31T09:48:31;3.63;;;1.42;;
63312;SDS011;49442;45.640;13.812;2023-10-31T09:50:57;8.90;;;1.42;;
63312;SDS011;49442;45.640;13.812;2023-10-31T09:53:23;5.55;;;1.13;;
63312;SDS011;49442;45.640;13.812;2023-10-31T09:55:50;5.35;;;1.30;;
63312;SDS011;49442;45.640;13.812;2023-10-31T09:58:16;4.45;;;1.10;;
63312;SDS011;49442;45.640;13.812;2023-10-31T10:00:42;2.50;;;0.90;;
63312;SDS011;49442;45.640;13.812;2023-10-31T10:03:08;4.80;;;0.90;;
63312;SDS011;49442;45.640;13.812;2023-10-31T10:05:37;9.00;;;1.52;;
63312;SDS011;49442;45.640;13.812;2023-10-31T10:08:06;6.05;;;1.20;;
63312;SDS011;49442;45.640;13.812;2023-10-31T10:10:33;7.82;;;1.52;;
63312;SDS011;49442;45.640;13.812;2023-10-31T10:12:59;6.30;;;1.20;;
63312;SDS011;49442;45.640;13.812;2023-10-31T10:15:27;9.02;;;1.50;;
63312;SDS011;49442;45.640;13.812;2023-10-31T10:17:53;9.45;;;1.92;;
63312;SDS011;49442;45.640;13.812;2023-10-31T10:20:19;8.02;;;1.33;;
63312;SDS011;49442;45.640;13.812;2023-10-31T10:22:45;10.57;;;2.13;;
63312;SDS011;49442;45.640;13.812;2023-10-31T10:25:12;12.00;;;2.05;;
63312;SDS011;49442;45.640;13.812;2023-10-31T10:27:41;11.05;;;2.13;;
63312;SDS011;49442;45.640;13.812;2023-10-31T10:30:07;10.70;;;1.83;;
63312;SDS011;49442;45.640;13.812;2023-10-31T10:32:34;9.23;;;1.88;;
63312;SDS011;49442;45.640;13.812;2023-10-31T10:35:00;9.93;;;1.33;;
63312;SDS011;49442;45.640;13.812;2023-10-31T10:37:29;5.95;;;1.40;;
63312;SDS011;49442;45.640;13.812;2023-10-31T10:39:55;14.98;;;1.77;;
63312;SDS011;49442;45.640;13.812;2023-10-31T10:43:03;14.05;;;1.88;;
63312;SDS011;49442;45.640;13.812;2023-10-31T10:45:14;8.27;;;2.25;;
63312;SDS011;49442;45.640;13.812;2023-10-31T10:47:41;16.23;;;2.17;;
63312;SDS011;49442;45.640;13.812;2023-10-31T10:50:10;11.60;;;1.98;;
63312;SDS011;49442;45.640;13.812;2023-10-31T10:55:15;12.70;;;1.83;;
63312;SDS011;49442;45.640;13.812;2023-10-31T10:57:56;23.33;;;2.58;;
63312;SDS011;49442;45.640;13.812;2023-10-31T11:00:26;14.82;;;2.50;;
63312;SDS011;49442;45.640;13.812;2023-10-31T11:02:52;17.95;;;2.42;;
63312;SDS011;49442;45.640;13.812;2023-10-31T11:05:18;15.18;;;2.30;;
63312;SDS011;49442;45.640;13.812;2023-10-31T11:07:45;16.38;;;2.85;;
63312;SDS011;49442;45.640;13.812;2023-10-31T11:10:12;13.88;;;2.25;;
63312;SDS011;49442;45.640;13.812;2023-10-31T11:12:39;15.27;;;2.78;;
63312;SDS011;49442;45.640;13.812;2023-10-31T11:15:06;18.75;;;2.90;;
63312;SDS011;49442;45.640;13.812;2023-10-31T11:17:35;23.20;;;3.47;;
63312;SDS011;49442;45.640;13.812;2023-10-31T11:20:03;25.95;;;3.67;;
63312;SDS011;49442;45.640;13.812;2023-10-31T11:22:42;18.15;;;2.85;;
63312;SDS011;49442;45.640;13.812;2023-10-31T11:25:12;19.73;;;2.47;;
63312;SDS011;49442;45.640;13.812;2023-10-31T11:27:39;17.67;;;2.42;;
63312;SDS011;49442;45.640;13.812;2023-10-31T11:30:07;26.08;;;4.25;;
63312;SDS011;49442;45.640;13.812;2023-10-31T11:32:49;18.38;;;3.17;;
63312;SDS011;49442;45.640;13.812;2023-10-31T11:35:18;19.67;;;3.28;;
63312;SDS011;49442;45.640;13.812;2023-10-31T11:37:47;12.20;;;2.20;;
63312;SDS011;49442;45.640;13.812;2023-10-31T11:42:48;16.70;;;1.92;;
63312;SDS011;49442;45.640;13.812;2023-10-31T11:45:23;21.55;;;2.45;;
63312;SDS011;49442;45.640;13.812;2023-10-31T11:48:12;13.50;;;1.80;;
63312;SDS011;49442;45.640;13.812;2023-10-31T11:50:39;14.77;;;2.25;;
63312;SDS011;49442;45.640;13.812;2023-10-31T11:53:08;11.68;;;2.03;;
63312;SDS011;49442;45.640;13.812;2023-10-31T11:55:39;17.27;;;2.08;;
63312;SDS011;49442;45.640;13.812;2023-10-31T12:00:43;10.07;;;1.60;;
63312;SDS011;49442;45.640;13.812;2023-10-31T12:03:10;8.02;;;2.15;;
63312;SDS011;49442;45.640;13.812;2023-10-31T12:05:36;7.90;;;1.48;;
63312;SDS011;49442;45.640;13.812;2023-10-31T12:08:02;5.88;;;1.25;;
63312;SDS011;49442;45.640;13.812;2023-10-31T12:10:28;7.50;;;1.60;;
63312;SDS011;49442;45.640;13.812;2023-10-31T12:12:56;5.00;;;1.42;;
63312;SDS011;49442;45.640;13.812;2023-10-31T12:15:23;11.35;;;1.27;;
63312;SDS011;49442;45.640;13.812;2023-10-31T12:17:49;7.15;;;1.73;;
63312;SDS011;49442;45.640;13.812;2023-10-31T12:20:15;7.03;;;1.77;;
63312;SDS011;49442;45.640;13.812;2023-10-31T12:22:41;7.40;;;1.70;;
63312;SDS011;49442;45.640;13.812;2023-10-31T12:25:07;11.27;;;1.58;;
63312;SDS011;49442;45.640;13.812;2023-10-31T12:27:44;9.30;;;1.70;;
63312;SDS011;49442;45.640;13.812;2023-10-31T12:30:10;7.43;;;1.50;;
63312;SDS011;49442;45.640;13.812;2023-10-31T12:32:37;9.93;;;2.20;;
63312;SDS011;49442;45.640;13.812;2023-10-31T12:35:05;5.72;;;1.30;;
63312;SDS011;49442;45.640;13.812;2023-10-31T12:37:31;8.75;;;1.40;;
63312;SDS011;49442;45.640;13.812;2023-10-31T12:39:58;8.90;;;1.15;;
63312;SDS011;49442;45.640;13.812;2023-10-31T12:42:28;3.33;;;1.33;;
63312;SDS011;49442;45.640;13.812;2023-10-31T12:44:56;5.47;;;1.27;;
63312;SDS011;49442;45.640;13.812;2023-10-31T12:47:24;10.60;;;1.38;;
63312;SDS011;49442;45.640;13.812;2023-10-31T12:50:09;6.78;;;1.38;;
63312;SDS011;49442;45.640;13.812;2023-10-31T12:52:48;5.35;;;1.20;;
63312;SDS011;49442;45.640;13.812;2023-10-31T12:55:19;4.22;;;0.90;;
63312;SDS011;49442;45.640;13.812;2023-10-31T12:57:49;9.25;;;1.00;;
63312;SDS011;49442;45.640;13.812;2023-10-31T13:00:17;2.72;;;1.05;;
63312;SDS011;49442;45.640;13.812;2023-10-31T13:02:49;9.55;;;1.20;;
63312;SDS011;49442;45.640;13.812;2023-10-31T13:05:16;5.40;;;0.85;;
63312;SDS011;49442;45.640;13.812;2023-10-31T13:07:48;2.97;;;0.70;;
63312;SDS011;49442;45.640;13.812;2023-10-31T13:10:16;3.33;;;1.05;;
63312;SDS011;49442;45.640;13.812;2023-10-31T13:12:45;6.10;;;1.20;;
63312;SDS011;49442;45.640;13.812;2023-10-31T13:15:15;5.18;;;0.75;;
63312;SDS011;49442;45.640;13.812;2023-10-31T13:17:41;4.93;;;0.70;;
63312;SDS011;49442;45.640;13.812;2023-10-31T13:20:10;6.57;;;1.20;;
63312;SDS011;49442;45.640;13.812;2023-10-31T13:22:37;9.95;;;1.83;;
63312;SDS011;49442;45.640;13.812;2023-10-31T13:25:05;5.47;;;1.00;;
63312;SDS011;49442;45.640;13.812;2023-10-31T13:27:39;6.43;;;1.30;;
63312;SDS011;49442;45.640;13.812;2023-10-31T13:30:08;11.25;;;1.33;;
63312;SDS011;49442;45.640;13.812;2023-10-31T13:32:35;12.55;;;1.98;;
63312;SDS011;49442;45.640;13.812;2023-10-31T13:35:01;8.80;;;1.50;;
63312;SDS011;49442;45.640;13.812;2023-10-31T13:37:28;6.00;;;1.55;;
63312;SDS011;49442;45.640;13.812;2023-10-31T13:39:53;7.10;;;1.35;;
63312;SDS011;49442;45.640;13.812;2023-10-31T13:42:19;10.98;;;2.65;;
63312;SDS011;49442;45.640;13.812;2023-10-31T13:44:45;8.45;;;1.50;;
63312;SDS011;49442;45.640;13.812;2023-10-31T13:47:11;16.27;;;2.05;;
63312;SDS011;49442;45.640;13.812;2023-10-31T13:49:36;6.97;;;1.70;;
63312;SDS011;49442;45.640;13.812;2023-10-31T13:52:05;7.78;;;1.55;;
63312;SDS011;49442;45.640;13.812;2023-10-31T13:54:31;17.17;;;1.98;;
63312;SDS011;49442;45.640;13.812;2023-10-31T13:56:57;4.40;;;1.50;;
63312;SDS011;49442;45.640;13.812;2023-10-31T13:59:23;10.45;;;1.90;;
63312;SDS011;49442;45.640;13.812;2023-10-31T14:01:49;9.93;;;1.88;;
63312;SDS011;49442;45.640;13.812;2023-10-31T14:04:15;6.18;;;1.17;;
63312;SDS011;49442;45.640;13.812;2023-10-31T14:06:41;9.05;;;1.40;;
63312;SDS011;49442;45.640;13.812;2023-10-31T14:09:08;7.43;;;1.27;;
63312;SDS011;49442;45.640;13.812;2023-10-31T14:11:35;5.65;;;1.27;;
63312;SDS011;49442;45.640;13.812;2023-10-31T14:14:01;5.05;;;1.73;;
63312;SDS011;49442;45.640;13.812;2023-10-31T14:16:41;6.28;;;1.40;;
63312;SDS011;49442;45.640;13.812;2023-10-31T14:19:10;14.50;;;1.77;;
63312;SDS011;49442;45.640;13.812;2023-10-31T14:21:36;6.65;;;1.77;;
63312;SDS011;49442;45.640;13.812;2023-10-31T14:24:03;7.97;;;1.42;;
63312;SDS011;49442;45.640;13.812;2023-10-31T14:26:30;9.15;;;1.10;;
63312;SDS011;49442;45.640;13.812;2023-10-31T14:28:58;6.00;;;1.40;;